createdAt,value
2022-12-04T00:02:16.922Z,6.50
2022-12-04T00:04:45.580Z,6.50
2022-12-04T00:07:14.145Z,6.50
2022-12-04T00:09:42.805Z,6.50
2022-12-04T00:12:11.384Z,6.50
2022-12-04T00:15:16.143Z,6.50
2022-12-04T00:17:30.252Z,6.50
2022-12-04T00:19:58.690Z,6.50
2022-12-04T00:22:27.107Z,6.50
2022-12-04T00:24:55.727Z,6.50
2022-12-04T00:27:24.210Z,6.50
2022-12-04T00:29:53.344Z,6.50
2022-12-04T00:32:22.069Z,6.50
2022-12-04T00:34:54.848Z,6.50
2022-12-04T00:37:23.220Z,6.50
2022-12-04T00:39:51.936Z,6.50
2022-12-04T00:42:20.570Z,6.50
2022-12-04T00:44:49.231Z,6.50
2022-12-04T00:47:18.155Z,6.50
2022-12-04T00:49:46.572Z,6.50
2022-12-04T00:52:16.664Z,6.50
2022-12-04T00:54:45.290Z,6.50
2022-12-04T00:57:13.781Z,6.50
2022-12-04T00:59:42.298Z,6.50
2022-12-04T01:02:10.767Z,6.50
2022-12-04T01:04:39.272Z,6.50
2022-12-04T01:07:07.801Z,6.50
2022-12-04T01:09:38.151Z,6.50
2022-12-04T01:12:06.942Z,6.50
2022-12-04T01:14:35.433Z,6.50
2022-12-04T01:17:04.080Z,6.50
2022-12-04T01:19:32.542Z,6.50
2022-12-04T01:22:01.180Z,6.50
2022-12-04T01:24:30.079Z,6.50
2022-12-04T01:27:00.093Z,6.40
2022-12-04T01:29:28.781Z,6.50
2022-12-04T01:31:57.328Z,6.40
2022-12-04T01:34:26.210Z,6.40
2022-12-04T01:36:54.735Z,6.50
2022-12-04T01:39:23.393Z,6.50
2022-12-04T01:41:51.983Z,6.40
2022-12-04T01:44:24.128Z,6.40
2022-12-04T01:46:54.306Z,6.40
2022-12-04T01:49:29.721Z,6.40
2022-12-04T01:52:02.138Z,6.40
2022-12-04T01:54:33.293Z,6.50
2022-12-04T01:57:08.433Z,6.40
2022-12-04T01:59:43.256Z,6.40
2022-12-04T02:02:14.635Z,6.40
2022-12-04T02:04:44.884Z,6.40
2022-12-04T02:07:13.855Z,6.40
2022-12-04T02:09:43.359Z,6.40
2022-12-04T02:12:21.724Z,6.40
2022-12-04T02:15:02.323Z,6.40
2022-12-04T02:17:40.007Z,6.40
2022-12-04T02:20:23.870Z,6.40
2022-12-04T02:23:21.675Z,6.40
2022-12-04T02:25:59.913Z,6.40
2022-12-04T02:28:35.833Z,6.40
2022-12-04T02:31:06.745Z,6.40
2022-12-04T02:33:40.401Z,6.40
2022-12-04T02:36:16.465Z,6.40
2022-12-04T02:38:48.707Z,6.40
2022-12-04T02:41:25.681Z,6.40
2022-12-04T02:44:00.332Z,6.40
2022-12-04T02:46:36.326Z,6.40
2022-12-04T02:49:09.333Z,6.40
2022-12-04T02:51:45.305Z,6.40
2022-12-04T02:54:20.676Z,6.40
2022-12-04T02:56:52.400Z,6.40
2022-12-04T02:59:27.854Z,6.40
2022-12-04T03:02:01.733Z,6.40
2022-12-04T03:04:32.141Z,6.40
2022-12-04T03:07:05.141Z,6.40
2022-12-04T03:09:39.506Z,6.40
2022-12-04T03:12:11.762Z,6.40
2022-12-04T03:14:45.151Z,6.40
2022-12-04T03:17:19.496Z,6.40
2022-12-04T03:19:53.061Z,6.40
2022-12-04T03:22:23.961Z,6.40
2022-12-04T03:24:54.872Z,6.40
2022-12-04T03:27:30.561Z,6.40
2022-12-04T03:30:06.179Z,6.40
2022-12-04T03:32:39.859Z,6.40
2022-12-04T03:35:14.818Z,6.30
2022-12-04T03:37:51.549Z,6.40
2022-12-04T03:40:28.266Z,6.40
2022-12-04T03:43:01.781Z,6.30
2022-12-04T03:45:40.824Z,6.30
2022-12-04T03:48:16.809Z,6.40
2022-12-04T03:50:55.112Z,6.30
2022-12-04T03:53:32.259Z,6.40
2022-12-04T03:56:07.388Z,6.30
2022-12-04T03:58:40.589Z,6.30
2022-12-04T04:01:13.405Z,6.30
2022-12-04T04:03:46.295Z,6.30
2022-12-04T04:06:18.770Z,6.30
2022-12-04T04:08:51.842Z,6.30
2022-12-04T04:11:23.623Z,6.30
2022-12-04T04:14:13.755Z,6.30
2022-12-04T04:17:06.787Z,6.30
2022-12-04T04:19:55.829Z,6.30
2022-12-04T04:22:44.307Z,6.30
2022-12-04T04:25:16.317Z,6.30
2022-12-04T04:27:52.409Z,6.30
2022-12-04T04:30:21.404Z,6.30
2022-12-04T04:33:00.259Z,6.30
2022-12-04T04:35:38.492Z,6.30
2022-12-04T04:38:13.560Z,6.30
2022-12-04T04:40:52.801Z,6.30
2022-12-04T04:43:26.450Z,6.30
2022-12-04T04:45:59.977Z,6.30
2022-12-04T04:48:35.397Z,6.30
2022-12-04T04:51:05.616Z,6.30
2022-12-04T04:53:40.317Z,6.30
2022-12-04T04:56:10.556Z,6.30
2022-12-04T04:58:39.028Z,6.30
2022-12-04T05:01:10.127Z,6.30
2022-12-04T05:03:40.132Z,6.30
2022-12-04T05:06:08.790Z,6.30
2022-12-04T05:08:37.956Z,6.30
2022-12-04T05:11:07.442Z,6.30
2022-12-04T05:13:36.233Z,6.30
2022-12-04T05:16:07.866Z,6.30
2022-12-04T05:18:37.176Z,6.30
2022-12-04T05:21:08.238Z,6.30
2022-12-04T05:23:37.042Z,6.30
2022-12-04T05:26:06.726Z,6.30
2022-12-04T05:28:35.265Z,6.30
2022-12-04T05:31:04.831Z,6.30
2022-12-04T05:33:33.755Z,6.30
2022-12-04T05:36:04.175Z,6.30
2022-12-04T05:38:34.685Z,6.30
2022-12-04T05:41:05.136Z,6.30
2022-12-04T05:43:35.873Z,6.30
2022-12-04T05:46:05.658Z,6.30
2022-12-04T05:48:35.784Z,6.30
2022-12-04T05:51:07.656Z,6.30
2022-12-04T05:53:38.122Z,6.30
2022-12-04T05:56:08.705Z,6.30
2022-12-04T05:58:41.100Z,6.30
2022-12-04T06:01:11.562Z,6.30
2022-12-04T06:03:40.268Z,6.20
2022-12-04T06:06:19.313Z,6.20
2022-12-04T06:08:57.396Z,6.20
2022-12-04T06:11:27.677Z,6.20
2022-12-04T06:13:56.705Z,6.20
2022-12-04T06:16:27.373Z,6.20
2022-12-04T06:18:58.385Z,6.20
2022-12-04T06:21:30.173Z,6.20
2022-12-04T06:24:00.335Z,6.20
2022-12-04T06:26:29.218Z,6.20
2022-12-04T06:28:59.005Z,6.20
2022-12-04T06:31:29.846Z,6.20
2022-12-04T06:33:59.637Z,6.20
2022-12-04T06:36:28.165Z,6.20
2022-12-04T06:38:58.041Z,6.20
2022-12-04T06:41:29.731Z,6.20
2022-12-04T06:43:58.918Z,6.20
2022-12-04T06:46:29.646Z,6.20
2022-12-04T06:48:59.447Z,6.20
2022-12-04T06:51:31.269Z,6.20
2022-12-04T06:54:00.315Z,6.20
2022-12-04T06:56:32.494Z,6.20
2022-12-04T06:59:06.105Z,6.20
2022-12-04T07:01:36.300Z,6.20
2022-12-04T07:04:05.454Z,6.20
2022-12-04T07:06:35.399Z,6.20
2022-12-04T07:09:06.501Z,6.20
2022-12-04T07:11:38.522Z,6.20
2022-12-04T07:14:07.474Z,6.20
2022-12-04T07:16:40.775Z,6.20
2022-12-04T07:19:10.492Z,6.20
2022-12-04T07:21:39.348Z,6.20
2022-12-04T07:24:08.998Z,6.20
2022-12-04T07:26:39.812Z,6.20
2022-12-04T07:29:08.606Z,6.20
2022-12-04T07:31:37.941Z,6.20
2022-12-04T07:34:06.656Z,6.20
2022-12-04T07:36:35.155Z,6.10
2022-12-04T07:39:06.214Z,6.20
2022-12-04T07:41:34.869Z,6.20
2022-12-04T07:44:09.352Z,6.20
2022-12-04T07:46:38.114Z,6.20
2022-12-04T07:49:06.482Z,6.20
2022-12-04T07:51:34.942Z,6.10
2022-12-04T07:54:04.454Z,6.10
2022-12-04T07:56:33.568Z,6.20
2022-12-04T07:59:02.219Z,6.10
2022-12-04T08:01:32.798Z,6.10
2022-12-04T08:04:03.080Z,6.10
2022-12-04T08:06:34.496Z,6.10
2022-12-04T08:09:09.172Z,6.10
2022-12-04T08:11:37.948Z,6.10
2022-12-04T08:14:08.829Z,6.10
2022-12-04T08:16:38.840Z,6.10
2022-12-04T08:19:07.550Z,6.10
2022-12-04T08:21:35.941Z,6.10
2022-12-04T08:24:04.483Z,6.10
2022-12-04T08:26:34.338Z,6.10
2022-12-04T08:29:03.819Z,6.10
2022-12-04T08:31:34.051Z,6.10
2022-12-04T08:34:05.887Z,6.20
2022-12-04T08:36:34.854Z,6.10
2022-12-04T08:39:03.244Z,6.10
2022-12-04T08:41:32.000Z,6.10
2022-12-04T08:44:01.017Z,6.10
2022-12-04T08:46:29.994Z,6.10
2022-12-04T08:48:58.928Z,6.10
2022-12-04T08:51:30.072Z,6.10
2022-12-04T08:54:00.524Z,6.10
2022-12-04T08:56:31.245Z,6.10
2022-12-04T08:59:00.038Z,6.10
2022-12-04T09:01:30.084Z,6.10
2022-12-04T09:03:58.967Z,6.10
2022-12-04T09:06:29.073Z,6.10
2022-12-04T09:09:00.257Z,6.10
2022-12-04T09:11:30.351Z,6.10
2022-12-04T09:13:58.724Z,6.10
2022-12-04T09:16:28.039Z,6.10
2022-12-04T09:18:57.511Z,6.10
2022-12-04T09:21:27.969Z,6.10
2022-12-04T09:23:56.756Z,6.10
2022-12-04T09:26:27.884Z,6.10
2022-12-04T09:28:59.036Z,6.10
2022-12-04T09:31:27.483Z,6.10
2022-12-04T09:34:00.841Z,6.10
2022-12-04T09:36:31.137Z,6.10
2022-12-04T09:39:02.247Z,6.10
2022-12-04T09:41:51.762Z,6.10
2022-12-04T09:44:25.691Z,6.10
2022-12-04T09:47:00.348Z,6.10
2022-12-04T09:49:35.849Z,6.10
2022-12-04T09:52:22.628Z,6.10
2022-12-04T09:54:52.130Z,6.10
2022-12-04T09:57:32.722Z,6.10
2022-12-04T13:46:28.095Z,5.80
2022-12-04T13:49:07.887Z,5.80
2022-12-04T13:51:37.779Z,5.80
2022-12-04T13:54:27.471Z,5.80
2022-12-04T13:56:57.596Z,5.70
2022-12-04T13:59:37.381Z,5.80
2022-12-04T14:02:35.465Z,5.80
2022-12-04T14:05:05.962Z,5.80
2022-12-04T14:07:37.049Z,5.80
2022-12-04T14:10:09.602Z,5.80
2022-12-04T14:12:41.721Z,5.80
2022-12-04T14:15:21.611Z,5.80
2022-12-04T14:18:01.627Z,5.80
2022-12-04T14:20:32.872Z,5.80
2022-12-04T14:23:12.010Z,5.80
2022-12-04T14:25:41.619Z,5.80
2022-12-04T14:28:26.272Z,5.80
2022-12-04T14:31:14.422Z,5.90
2022-12-04T14:33:51.591Z,5.80
2022-12-04T14:36:25.065Z,5.80
2022-12-04T14:39:15.029Z,5.80
2022-12-04T14:41:43.581Z,5.80
2022-12-04T14:44:30.609Z,5.80
2022-12-04T14:47:03.614Z,5.90
2022-12-04T14:49:46.986Z,5.80
2022-12-04T14:52:26.623Z,5.80
2022-12-04T14:55:06.670Z,5.80
2022-12-04T14:57:47.570Z,5.80
2022-12-04T15:00:19.270Z,5.90
2022-12-04T15:02:49.023Z,5.90
2022-12-04T15:05:23.415Z,5.90
2022-12-04T15:07:55.145Z,5.90
2022-12-04T15:10:43.696Z,5.90
2022-12-04T15:13:16.055Z,5.90
2022-12-04T15:15:47.876Z,5.90
2022-12-04T15:18:17.894Z,5.90
2022-12-04T15:20:56.669Z,5.90
2022-12-04T15:23:30.355Z,5.90
2022-12-04T15:26:01.428Z,5.90
2022-12-04T15:28:33.830Z,5.80
2022-12-04T15:31:05.309Z,5.90
2022-12-04T15:33:37.833Z,5.80
2022-12-04T15:36:14.550Z,5.80
2022-12-04T15:38:43.371Z,5.90
2022-12-04T15:41:31.760Z,5.90
2022-12-04T15:44:01.199Z,5.90
2022-12-04T15:46:38.176Z,5.90
2022-12-04T15:49:08.812Z,5.90
2022-12-04T15:51:39.346Z,5.90
2022-12-04T15:54:16.809Z,5.90
2022-12-04T15:56:45.373Z,5.90
2022-12-04T15:59:19.409Z,5.80
2022-12-04T16:01:48.117Z,5.90
2022-12-04T16:04:24.415Z,5.80
2022-12-04T16:06:55.120Z,5.90
2022-12-04T16:09:25.391Z,5.80
2022-12-04T16:12:02.591Z,5.80
2022-12-04T16:14:31.274Z,5.80
2022-12-04T16:17:06.279Z,5.80
2022-12-04T16:19:37.497Z,5.80
2022-12-04T16:22:15.947Z,5.90
2022-12-04T16:24:46.715Z,5.90
2022-12-04T16:27:17.307Z,5.80
2022-12-04T16:29:46.048Z,5.80
2022-12-04T16:32:17.463Z,5.80
2022-12-04T16:34:46.001Z,5.90
2022-12-04T16:37:18.565Z,5.80
2022-12-04T16:39:47.267Z,5.80
2022-12-04T16:42:17.968Z,5.80
2022-12-04T16:44:47.022Z,5.80
2022-12-04T16:47:16.384Z,5.80
2022-12-04T16:49:45.825Z,5.80
2022-12-04T16:52:15.802Z,5.80
2022-12-04T16:54:44.316Z,5.80
2022-12-04T16:57:12.895Z,5.80
2022-12-04T16:59:41.463Z,5.80
2022-12-04T17:02:17.056Z,5.80
2022-12-04T17:04:46.040Z,5.80
2022-12-04T17:07:15.851Z,5.80
2022-12-04T17:09:45.101Z,5.80
2022-12-04T17:12:13.604Z,5.80
2022-12-04T17:14:42.277Z,5.80
2022-12-04T17:17:11.015Z,5.80
2022-12-04T17:19:39.892Z,5.80
2022-12-04T17:22:08.400Z,5.80
2022-12-04T17:24:43.558Z,5.80
2022-12-04T17:27:15.705Z,5.80
2022-12-04T17:29:44.125Z,5.80
2022-12-04T17:32:12.960Z,5.80
2022-12-04T17:34:41.722Z,5.80
2022-12-04T17:37:10.788Z,5.80
2022-12-04T17:39:41.572Z,5.80
2022-12-04T17:42:10.139Z,5.80
2022-12-04T17:44:38.764Z,5.80
2022-12-04T17:47:07.420Z,5.80
2022-12-04T17:49:35.942Z,5.80
2022-12-04T17:52:04.677Z,5.80
2022-12-04T17:54:33.440Z,5.80
2022-12-04T17:57:03.725Z,5.80
2022-12-04T17:59:32.253Z,5.80
2022-12-04T18:02:00.855Z,5.80
2022-12-04T18:04:29.664Z,5.80
2022-12-04T18:06:58.081Z,5.80
2022-12-04T18:09:26.941Z,5.80
2022-12-04T18:11:56.287Z,5.80
2022-12-04T18:14:26.722Z,5.80
2022-12-04T18:16:56.815Z,5.80
2022-12-04T18:19:27.314Z,5.80
2022-12-04T18:21:56.568Z,5.80
2022-12-04T18:24:26.223Z,5.80
2022-12-04T18:26:54.895Z,5.80
2022-12-04T18:29:27.254Z,5.80
2022-12-04T18:31:56.223Z,5.80
2022-12-04T18:34:25.141Z,5.80
2022-12-04T18:36:53.824Z,5.80
2022-12-04T18:39:25.229Z,5.80
2022-12-04T18:41:57.078Z,5.80
2022-12-04T18:44:27.438Z,5.80
2022-12-04T18:46:57.921Z,5.80
2022-12-04T18:49:26.593Z,5.80
2022-12-04T18:51:55.367Z,5.80
2022-12-04T18:54:25.281Z,5.80
2022-12-04T18:56:54.085Z,5.80
2022-12-04T18:59:24.585Z,5.80
2022-12-04T19:01:55.341Z,5.80
2022-12-04T19:04:25.830Z,5.80
2022-12-04T19:06:56.730Z,5.80
2022-12-04T19:09:54.383Z,5.80
2022-12-04T19:12:16.926Z,5.80
2022-12-04T19:14:45.496Z,5.80
2022-12-04T19:17:16.108Z,5.80
2022-12-04T19:19:45.013Z,5.80
2022-12-04T19:22:13.698Z,5.80
2022-12-04T19:24:42.546Z,5.80
2022-12-04T19:27:12.195Z,5.80
2022-12-04T19:29:42.327Z,5.80
2022-12-04T19:32:12.427Z,5.80
2022-12-04T19:34:42.453Z,5.80
2022-12-04T19:37:11.096Z,5.80
2022-12-04T19:39:39.757Z,5.80
2022-12-04T19:42:08.722Z,5.80
2022-12-04T19:44:53.260Z,5.80
2022-12-04T19:47:22.070Z,5.80
2022-12-04T19:49:52.675Z,5.80
2022-12-04T19:52:23.099Z,5.80
2022-12-04T19:54:51.609Z,5.80
2022-12-04T19:57:20.084Z,5.80
2022-12-04T19:59:48.793Z,5.80
2022-12-04T20:02:17.506Z,5.80
2022-12-04T20:04:46.109Z,5.80
2022-12-04T20:07:16.725Z,5.80
2022-12-04T20:09:54.779Z,5.80
2022-12-04T20:12:23.300Z,5.80
2022-12-04T20:14:52.302Z,5.80
2022-12-04T20:17:21.011Z,5.80
2022-12-04T20:19:49.862Z,5.80
2022-12-04T20:22:19.703Z,5.80
2022-12-04T20:24:48.580Z,5.80
2022-12-04T20:27:17.096Z,5.80
2022-12-04T20:29:45.674Z,5.80
2022-12-04T20:32:14.593Z,5.80
2022-12-04T20:34:44.025Z,5.80
2022-12-04T20:37:12.858Z,5.80
2022-12-04T20:39:45.840Z,5.80
2022-12-04T20:42:15.926Z,5.80
2022-12-04T20:44:44.702Z,5.80
2022-12-04T20:47:14.202Z,5.80
2022-12-04T20:49:42.898Z,5.80
2022-12-04T20:52:11.432Z,5.80
2022-12-04T20:54:41.729Z,5.80
2022-12-04T20:57:12.068Z,5.80
2022-12-04T20:59:40.525Z,5.80
2022-12-04T21:02:09.028Z,5.80
2022-12-04T21:04:38.946Z,5.80
2022-12-04T21:07:08.158Z,5.80
2022-12-04T21:09:36.640Z,5.80
2022-12-04T21:12:26.509Z,5.80
2022-12-04T21:15:14.018Z,5.80
2022-12-04T21:17:43.194Z,5.80
2022-12-04T21:20:12.549Z,5.80
2022-12-04T21:22:41.321Z,5.80
2022-12-04T21:25:10.296Z,5.80
2022-12-04T21:27:38.851Z,5.80
2022-12-04T21:30:11.051Z,5.80
2022-12-04T21:32:40.084Z,5.80
2022-12-04T21:35:09.130Z,5.80
2022-12-04T21:37:37.612Z,5.80
2022-12-04T21:40:07.714Z,5.80
2022-12-04T21:42:36.219Z,5.80
2022-12-04T21:45:07.705Z,5.80
2022-12-04T21:47:38.354Z,5.80
2022-12-04T21:50:08.143Z,5.80
2022-12-04T21:52:36.764Z,5.80
2022-12-04T21:55:05.477Z,5.80
2022-12-04T21:57:33.883Z,5.80
2022-12-04T22:00:02.326Z,5.80
2022-12-04T22:02:34.930Z,5.80
2022-12-04T22:05:05.370Z,5.80
2022-12-04T22:07:34.395Z,5.80
2022-12-04T22:10:08.677Z,5.80
2022-12-04T22:12:49.460Z,5.70
2022-12-04T22:15:19.357Z,5.80
2022-12-04T22:17:47.871Z,5.80
2022-12-04T22:20:18.751Z,5.70
2022-12-04T22:22:47.238Z,5.80
2022-12-04T22:25:15.889Z,5.80
2022-12-04T22:27:44.308Z,5.70
2022-12-04T22:30:13.962Z,5.70
2022-12-04T22:32:42.394Z,5.70
2022-12-04T22:35:11.571Z,5.70
2022-12-04T22:37:44.598Z,5.70
2022-12-04T22:40:14.141Z,5.70
2022-12-04T22:42:43.092Z,5.70
2022-12-04T22:45:12.543Z,5.70
2022-12-04T22:47:41.120Z,5.80
2022-12-04T22:50:10.611Z,5.70
2022-12-04T22:52:40.409Z,5.70
2022-12-04T22:55:09.431Z,5.70
2022-12-04T22:57:37.938Z,5.70
2022-12-04T23:00:09.308Z,5.70
2022-12-04T23:02:37.829Z,5.80
2022-12-04T23:05:06.656Z,5.80
2022-12-04T23:07:35.122Z,5.80
2022-12-04T23:10:05.512Z,5.70
2022-12-04T23:12:34.103Z,5.70
2022-12-04T23:15:02.628Z,5.70
2022-12-04T23:17:32.060Z,5.70
2022-12-04T23:20:03.483Z,5.70
2022-12-04T23:22:32.361Z,5.70
2022-12-04T23:25:00.849Z,5.70
2022-12-04T23:27:32.126Z,5.70
2022-12-04T23:30:00.427Z,5.70
2022-12-04T23:32:28.765Z,5.70
2022-12-04T23:34:57.435Z,5.70
2022-12-04T23:37:26.126Z,5.70
2022-12-04T23:39:54.503Z,5.70
2022-12-04T23:42:22.829Z,5.70
2022-12-04T23:44:52.924Z,5.70
2022-12-04T23:47:21.459Z,5.70
2022-12-04T23:49:49.810Z,5.70
2022-12-04T23:52:18.285Z,5.70
2022-12-04T23:54:47.667Z,5.70
2022-12-04T23:57:16.319Z,5.70
2022-12-04T23:59:45.315Z,5.70
